sensor_id;sensor_type;location;lat;lon;timestamp;P1;durP1;ratioP1;P2;durP2;ratioP2
59294;SDS011;45067;44.654;20.200;2023-04-25T00:01:55;11.63;;;7.45;;
59294;SDS011;45067;44.654;20.200;2023-04-25T00:04:21;9.45;;;6.45;;
59294;SDS011;45067;44.654;20.200;2023-04-25T00:06:47;10.48;;;7.38;;
59294;SDS011;45067;44.654;20.200;2023-04-25T00:09:14;9.13;;;7.15;;
59294;SDS011;45067;44.654;20.200;2023-04-25T00:11:40;9.23;;;6.88;;
59294;SDS011;45067;44.654;20.200;2023-04-25T00:14:07;11.00;;;6.88;;
59294;SDS011;45067;44.654;20.200;2023-04-25T00:16:34;9.70;;;6.85;;
59294;SDS011;45067;44.654;20.200;2023-04-25T00:19:01;10.85;;;6.82;;
59294;SDS011;45067;44.654;20.200;2023-04-25T00:21:29;9.98;;;6.57;;
59294;SDS011;45067;44.654;20.200;2023-04-25T00:23:56;9.00;;;6.60;;
59294;SDS011;45067;44.654;20.200;2023-04-25T00:26:22;10.57;;;7.07;;
59294;SDS011;45067;44.654;20.200;2023-04-25T00:28:49;9.60;;;6.93;;
59294;SDS011;45067;44.654;20.200;2023-04-25T00:31:15;12.05;;;7.30;;
59294;SDS011;45067;44.654;20.200;2023-04-25T00:33:41;9.50;;;6.90;;
59294;SDS011;45067;44.654;20.200;2023-04-25T00:36:07;10.38;;;7.00;;
59294;SDS011;45067;44.654;20.200;2023-04-25T00:38:34;9.23;;;7.05;;
59294;SDS011;45067;44.654;20.200;2023-04-25T00:41:00;11.73;;;8.13;;
59294;SDS011;45067;44.654;20.200;2023-04-25T00:43:27;9.32;;;7.75;;
59294;SDS011;45067;44.654;20.200;2023-04-25T00:45:53;9.57;;;7.35;;
59294;SDS011;45067;44.654;20.200;2023-04-25T00:48:22;11.63;;;8.57;;
59294;SDS011;45067;44.654;20.200;2023-04-25T00:50:51;10.13;;;8.27;;
59294;SDS011;45067;44.654;20.200;2023-04-25T00:53:17;11.05;;;8.63;;
59294;SDS011;45067;44.654;20.200;2023-04-25T00:55:44;12.10;;;8.10;;
59294;SDS011;45067;44.654;20.200;2023-04-25T00:58:10;12.68;;;8.18;;
59294;SDS011;45067;44.654;20.200;2023-04-25T01:00:36;11.48;;;7.68;;
59294;SDS011;45067;44.654;20.200;2023-04-25T01:03:03;10.32;;;7.35;;
59294;SDS011;45067;44.654;20.200;2023-04-25T01:05:29;9.38;;;6.63;;
59294;SDS011;45067;44.654;20.200;2023-04-25T01:07:55;10.48;;;6.78;;
59294;SDS011;45067;44.654;20.200;2023-04-25T01:10:21;8.95;;;5.80;;
59294;SDS011;45067;44.654;20.200;2023-04-25T01:12:47;7.53;;;5.95;;
59294;SDS011;45067;44.654;20.200;2023-04-25T01:15:13;8.27;;;5.50;;
59294;SDS011;45067;44.654;20.200;2023-04-25T01:17:40;8.23;;;4.93;;
59294;SDS011;45067;44.654;20.200;2023-04-25T01:20:07;7.22;;;5.07;;
59294;SDS011;45067;44.654;20.200;2023-04-25T01:22:34;7.57;;;5.20;;
59294;SDS011;45067;44.654;20.200;2023-04-25T01:25:00;7.10;;;4.85;;
59294;SDS011;45067;44.654;20.200;2023-04-25T01:27:27;8.65;;;4.93;;
59294;SDS011;45067;44.654;20.200;2023-04-25T01:29:54;8.07;;;5.22;;
59294;SDS011;45067;44.654;20.200;2023-04-25T01:32:21;7.22;;;4.65;;
59294;SDS011;45067;44.654;20.200;2023-04-25T01:34:48;8.32;;;5.38;;
59294;SDS011;45067;44.654;20.200;2023-04-25T01:37:14;7.43;;;5.05;;
59294;SDS011;45067;44.654;20.200;2023-04-25T01:39:40;8.02;;;6.18;;
59294;SDS011;45067;44.654;20.200;2023-04-25T01:42:06;8.73;;;5.88;;
59294;SDS011;45067;44.654;20.200;2023-04-25T01:44:33;9.60;;;6.28;;
59294;SDS011;45067;44.654;20.200;2023-04-25T01:46:59;8.98;;;6.13;;
59294;SDS011;45067;44.654;20.200;2023-04-25T01:49:25;9.65;;;6.47;;
59294;SDS011;45067;44.654;20.200;2023-04-25T01:51:51;7.82;;;5.80;;
59294;SDS011;45067;44.654;20.200;2023-04-25T01:54:17;7.88;;;5.40;;
59294;SDS011;45067;44.654;20.200;2023-04-25T01:56:49;7.63;;;5.72;;
59294;SDS011;45067;44.654;20.200;2023-04-25T01:59:16;10.07;;;6.05;;
59294;SDS011;45067;44.654;20.200;2023-04-25T02:01:42;9.43;;;6.63;;
59294;SDS011;45067;44.654;20.200;2023-04-25T02:04:08;8.52;;;6.43;;
59294;SDS011;45067;44.654;20.200;2023-04-25T02:06:34;9.20;;;6.50;;
59294;SDS011;45067;44.654;20.200;2023-04-25T02:09:00;7.88;;;5.93;;
59294;SDS011;45067;44.654;20.200;2023-04-25T02:11:26;9.52;;;5.85;;
59294;SDS011;45067;44.654;20.200;2023-04-25T02:13:52;9.57;;;6.72;;
59294;SDS011;45067;44.654;20.200;2023-04-25T02:16:18;9.02;;;6.70;;
59294;SDS011;45067;44.654;20.200;2023-04-25T02:18:44;9.80;;;7.10;;
59294;SDS011;45067;44.654;20.200;2023-04-25T02:21:11;10.18;;;6.28;;
59294;SDS011;45067;44.654;20.200;2023-04-25T02:23:37;9.73;;;6.38;;
59294;SDS011;45067;44.654;20.200;2023-04-25T02:26:03;10.93;;;5.70;;
59294;SDS011;45067;44.654;20.200;2023-04-25T02:28:29;7.97;;;5.63;;
59294;SDS011;45067;44.654;20.200;2023-04-25T02:30:56;8.95;;;5.25;;
59294;SDS011;45067;44.654;20.200;2023-04-25T02:33:22;8.57;;;5.22;;
59294;SDS011;45067;44.654;20.200;2023-04-25T02:35:48;9.60;;;5.00;;
59294;SDS011;45067;44.654;20.200;2023-04-25T02:38:14;7.63;;;4.88;;
59294;SDS011;45067;44.654;20.200;2023-04-25T02:40:40;6.90;;;4.13;;
59294;SDS011;45067;44.654;20.200;2023-04-25T02:43:06;5.70;;;3.50;;
59294;SDS011;45067;44.654;20.200;2023-04-25T02:45:32;7.50;;;3.95;;
59294;SDS011;45067;44.654;20.200;2023-04-25T02:47:58;5.32;;;3.40;;
59294;SDS011;45067;44.654;20.200;2023-04-25T02:50:24;6.53;;;3.90;;
59294;SDS011;45067;44.654;20.200;2023-04-25T02:52:50;4.88;;;3.08;;
59294;SDS011;45067;44.654;20.200;2023-04-25T02:55:16;5.82;;;3.40;;
59294;SDS011;45067;44.654;20.200;2023-04-25T02:57:42;7.57;;;3.50;;
59294;SDS011;45067;44.654;20.200;2023-04-25T03:00:09;5.43;;;3.85;;
59294;SDS011;45067;44.654;20.200;2023-04-25T03:02:36;5.78;;;3.10;;
59294;SDS011;45067;44.654;20.200;2023-04-25T03:05:02;7.28;;;3.40;;
59294;SDS011;45067;44.654;20.200;2023-04-25T03:07:29;6.72;;;3.53;;
59294;SDS011;45067;44.654;20.200;2023-04-25T03:09:55;9.55;;;4.10;;
59294;SDS011;45067;44.654;20.200;2023-04-25T03:12:21;7.03;;;3.85;;
59294;SDS011;45067;44.654;20.200;2023-04-25T03:14:47;7.07;;;3.70;;
59294;SDS011;45067;44.654;20.200;2023-04-25T03:17:13;5.93;;;4.07;;
59294;SDS011;45067;44.654;20.200;2023-04-25T03:19:40;6.60;;;4.43;;
59294;SDS011;45067;44.654;20.200;2023-04-25T03:22:06;8.40;;;4.20;;
59294;SDS011;45067;44.654;20.200;2023-04-25T03:24:32;7.15;;;4.50;;
59294;SDS011;45067;44.654;20.200;2023-04-25T03:26:58;7.40;;;4.28;;
59294;SDS011;45067;44.654;20.200;2023-04-25T03:29:24;6.13;;;3.67;;
59294;SDS011;45067;44.654;20.200;2023-04-25T03:31:51;7.50;;;4.40;;
59294;SDS011;45067;44.654;20.200;2023-04-25T03:34:17;8.60;;;4.32;;
59294;SDS011;45067;44.654;20.200;2023-04-25T03:36:43;5.32;;;3.75;;
59294;SDS011;45067;44.654;20.200;2023-04-25T03:39:09;5.90;;;3.58;;
59294;SDS011;45067;44.654;20.200;2023-04-25T03:41:35;8.90;;;4.60;;
59294;SDS011;45067;44.654;20.200;2023-04-25T03:44:01;6.95;;;4.00;;
59294;SDS011;45067;44.654;20.200;2023-04-25T03:46:28;6.88;;;4.00;;
59294;SDS011;45067;44.654;20.200;2023-04-25T03:48:54;6.38;;;4.20;;
59294;SDS011;45067;44.654;20.200;2023-04-25T03:51:21;6.13;;;3.88;;
59294;SDS011;45067;44.654;20.200;2023-04-25T03:53:49;5.97;;;4.10;;
59294;SDS011;45067;44.654;20.200;2023-04-25T03:56:15;7.20;;;4.25;;
59294;SDS011;45067;44.654;20.200;2023-04-25T03:58:41;6.78;;;4.22;;
59294;SDS011;45067;44.654;20.200;2023-04-25T04:01:07;9.15;;;4.38;;
59294;SDS011;45067;44.654;20.200;2023-04-25T04:03:34;11.55;;;4.75;;
59294;SDS011;45067;44.654;20.200;2023-04-25T04:06:03;6.67;;;4.50;;
59294;SDS011;45067;44.654;20.200;2023-04-25T04:08:30;9.35;;;5.18;;
59294;SDS011;45067;44.654;20.200;2023-04-25T04:10:57;6.32;;;4.72;;
59294;SDS011;45067;44.654;20.200;2023-04-25T04:13:25;8.40;;;5.03;;
59294;SDS011;45067;44.654;20.200;2023-04-25T04:15:51;7.93;;;5.13;;
59294;SDS011;45067;44.654;20.200;2023-04-25T04:18:17;7.78;;;5.38;;
59294;SDS011;45067;44.654;20.200;2023-04-25T04:20:43;8.35;;;5.18;;
59294;SDS011;45067;44.654;20.200;2023-04-25T04:23:09;9.60;;;5.50;;
59294;SDS011;45067;44.654;20.200;2023-04-25T04:25:37;10.88;;;6.50;;
59294;SDS011;45067;44.654;20.200;2023-04-25T04:28:04;12.45;;;6.60;;
59294;SDS011;45067;44.654;20.200;2023-04-25T04:33:34;9.43;;;6.78;;
59294;SDS011;45067;44.654;20.200;2023-04-25T04:36:01;12.10;;;7.22;;
59294;SDS011;45067;44.654;20.200;2023-04-25T04:38:28;13.32;;;7.47;;
59294;SDS011;45067;44.654;20.200;2023-04-25T04:40:54;12.85;;;6.78;;
59294;SDS011;45067;44.654;20.200;2023-04-25T04:43:21;12.80;;;7.13;;
59294;SDS011;45067;44.654;20.200;2023-04-25T04:45:48;9.07;;;6.20;;
59294;SDS011;45067;44.654;20.200;2023-04-25T04:48:15;10.73;;;6.47;;
59294;SDS011;45067;44.654;20.200;2023-04-25T04:50:42;8.52;;;4.20;;
59294;SDS011;45067;44.654;20.200;2023-04-25T04:53:10;4.82;;;2.90;;
59294;SDS011;45067;44.654;20.200;2023-04-25T04:55:37;2.95;;;1.67;;
59294;SDS011;45067;44.654;20.200;2023-04-25T04:58:03;2.20;;;1.70;;
59294;SDS011;45067;44.654;20.200;2023-04-25T05:00:29;3.33;;;1.60;;
59294;SDS011;45067;44.654;20.200;2023-04-25T05:02:55;2.50;;;1.40;;
59294;SDS011;45067;44.654;20.200;2023-04-25T05:05:21;4.20;;;1.42;;
59294;SDS011;45067;44.654;20.200;2023-04-25T05:07:47;3.05;;;1.90;;
59294;SDS011;45067;44.654;20.200;2023-04-25T05:10:13;1.88;;;1.50;;
59294;SDS011;45067;44.654;20.200;2023-04-25T05:12:40;3.20;;;1.48;;
59294;SDS011;45067;44.654;20.200;2023-04-25T05:15:06;2.85;;;1.95;;
59294;SDS011;45067;44.654;20.200;2023-04-25T05:17:32;1.88;;;1.52;;
59294;SDS011;45067;44.654;20.200;2023-04-25T05:19:58;1.85;;;1.50;;
59294;SDS011;45067;44.654;20.200;2023-04-25T05:22:24;3.60;;;1.60;;
59294;SDS011;45067;44.654;20.200;2023-04-25T05:24:51;3.03;;;1.80;;
59294;SDS011;45067;44.654;20.200;2023-04-25T05:27:17;3.30;;;1.98;;
59294;SDS011;45067;44.654;20.200;2023-04-25T05:29:44;6.85;;;2.20;;
59294;SDS011;45067;44.654;20.200;2023-04-25T05:32:10;7.80;;;3.17;;
59294;SDS011;45067;44.654;20.200;2023-04-25T05:34:36;4.68;;;2.25;;
59294;SDS011;45067;44.654;20.200;2023-04-25T05:37:02;8.45;;;2.35;;
59294;SDS011;45067;44.654;20.200;2023-04-25T05:39:28;6.45;;;2.85;;
59294;SDS011;45067;44.654;20.200;2023-04-25T05:41:54;6.05;;;2.40;;
59294;SDS011;45067;44.654;20.200;2023-04-25T05:44:20;6.97;;;3.00;;
59294;SDS011;45067;44.654;20.200;2023-04-25T05:46:47;9.20;;;2.90;;
59294;SDS011;45067;44.654;20.200;2023-04-25T05:49:13;7.28;;;3.13;;
59294;SDS011;45067;44.654;20.200;2023-04-25T05:51:39;6.97;;;3.08;;
59294;SDS011;45067;44.654;20.200;2023-04-25T05:54:05;10.20;;;3.20;;
59294;SDS011;45067;44.654;20.200;2023-04-25T05:56:31;9.68;;;3.10;;
59294;SDS011;45067;44.654;20.200;2023-04-25T05:58:57;7.72;;;3.17;;
59294;SDS011;45067;44.654;20.200;2023-04-25T06:01:23;6.35;;;2.92;;
59294;SDS011;45067;44.654;20.200;2023-04-25T06:03:49;10.40;;;4.10;;
59294;SDS011;45067;44.654;20.200;2023-04-25T06:06:17;8.80;;;3.08;;
59294;SDS011;45067;44.654;20.200;2023-04-25T06:08:43;4.45;;;3.00;;
59294;SDS011;45067;44.654;20.200;2023-04-25T06:11:10;8.55;;;2.97;;
59294;SDS011;45067;44.654;20.200;2023-04-25T06:13:36;4.88;;;3.03;;
59294;SDS011;45067;44.654;20.200;2023-04-25T06:16:02;7.38;;;3.50;;
59294;SDS011;45067;44.654;20.200;2023-04-25T06:18:28;7.05;;;3.30;;
59294;SDS011;45067;44.654;20.200;2023-04-25T06:20:54;6.60;;;3.17;;
59294;SDS011;45067;44.654;20.200;2023-04-25T06:23:20;4.97;;;3.13;;
59294;SDS011;45067;44.654;20.200;2023-04-25T06:25:46;3.83;;;2.50;;
59294;SDS011;45067;44.654;20.200;2023-04-25T06:28:12;4.22;;;2.67;;
59294;SDS011;45067;44.654;20.200;2023-04-25T06:30:39;4.60;;;3.00;;
59294;SDS011;45067;44.654;20.200;2023-04-25T06:33:05;7.30;;;3.00;;
59294;SDS011;45067;44.654;20.200;2023-04-25T06:35:33;5.68;;;2.97;;
59294;SDS011;45067;44.654;20.200;2023-04-25T06:37:59;3.55;;;2.30;;
59294;SDS011;45067;44.654;20.200;2023-04-25T06:40:25;6.40;;;2.97;;
59294;SDS011;45067;44.654;20.200;2023-04-25T06:42:51;2.88;;;2.20;;
59294;SDS011;45067;44.654;20.200;2023-04-25T06:45:17;4.32;;;2.95;;
59294;SDS011;45067;44.654;20.200;2023-04-25T06:47:43;4.97;;;2.60;;
59294;SDS011;45067;44.654;20.200;2023-04-25T06:50:10;6.32;;;2.90;;
59294;SDS011;45067;44.654;20.200;2023-04-25T06:52:36;4.47;;;2.58;;
59294;SDS011;45067;44.654;20.200;2023-04-25T06:55:02;3.55;;;2.58;;
59294;SDS011;45067;44.654;20.200;2023-04-25T06:57:29;6.32;;;3.60;;
59294;SDS011;45067;44.654;20.200;2023-04-25T06:59:56;9.60;;;3.72;;
59294;SDS011;45067;44.654;20.200;2023-04-25T07:02:22;5.68;;;3.20;;
59294;SDS011;45067;44.654;20.200;2023-04-25T07:04:48;4.13;;;3.00;;
59294;SDS011;45067;44.654;20.200;2023-04-25T07:07:14;5.63;;;3.35;;
59294;SDS011;45067;44.654;20.200;2023-04-25T07:09:40;4.60;;;3.10;;
59294;SDS011;45067;44.654;20.200;2023-04-25T07:12:06;5.82;;;3.13;;
59294;SDS011;45067;44.654;20.200;2023-04-25T07:14:32;9.30;;;4.28;;
59294;SDS011;45067;44.654;20.200;2023-04-25T07:16:58;7.82;;;3.90;;
59294;SDS011;45067;44.654;20.200;2023-04-25T07:19:24;5.53;;;3.00;;
59294;SDS011;45067;44.654;20.200;2023-04-25T07:21:51;5.22;;;3.40;;
59294;SDS011;45067;44.654;20.200;2023-04-25T07:24:18;6.47;;;2.90;;
59294;SDS011;45067;44.654;20.200;2023-04-25T07:26:44;5.47;;;3.00;;
59294;SDS011;45067;44.654;20.200;2023-04-25T07:29:10;5.22;;;2.95;;
59294;SDS011;45067;44.654;20.200;2023-04-25T07:31:36;5.57;;;3.10;;
59294;SDS011;45067;44.654;20.200;2023-04-25T07:34:02;5.70;;;3.55;;
59294;SDS011;45067;44.654;20.200;2023-04-25T07:36:29;4.95;;;2.92;;
59294;SDS011;45067;44.654;20.200;2023-04-25T07:38:55;7.72;;;3.20;;
59294;SDS011;45067;44.654;20.200;2023-04-25T07:41:21;4.47;;;2.70;;
59294;SDS011;45067;44.654;20.200;2023-04-25T07:43:48;5.97;;;2.53;;
59294;SDS011;45067;44.654;20.200;2023-04-25T07:46:14;7.03;;;2.28;;
59294;SDS011;45067;44.654;20.200;2023-04-25T07:48:40;3.90;;;2.38;;
59294;SDS011;45067;44.654;20.200;2023-04-25T07:51:06;4.22;;;2.55;;
59294;SDS011;45067;44.654;20.200;2023-04-25T07:53:32;4.10;;;2.60;;
59294;SDS011;45067;44.654;20.200;2023-04-25T07:55:59;5.40;;;2.92;;
59294;SDS011;45067;44.654;20.200;2023-04-25T07:58:25;6.13;;;2.53;;
59294;SDS011;45067;44.654;20.200;2023-04-25T08:00:52;4.78;;;2.65;;
59294;SDS011;45067;44.654;20.200;2023-04-25T08:03:18;4.88;;;2.88;;
59294;SDS011;45067;44.654;20.200;2023-04-25T08:05:44;3.83;;;2.33;;
59294;SDS011;45067;44.654;20.200;2023-04-25T08:08:10;5.07;;;2.90;;
59294;SDS011;45067;44.654;20.200;2023-04-25T08:10:36;4.82;;;2.55;;
59294;SDS011;45067;44.654;20.200;2023-04-25T08:13:02;6.22;;;3.00;;
59294;SDS011;45067;44.654;20.200;2023-04-25T08:15:28;5.07;;;2.70;;
59294;SDS011;45067;44.654;20.200;2023-04-25T08:18:07;4.60;;;2.72;;
59294;SDS011;45067;44.654;20.200;2023-04-25T08:20:33;6.40;;;3.35;;
59294;SDS011;45067;44.654;20.200;2023-04-25T08:22:59;6.38;;;3.35;;
59294;SDS011;45067;44.654;20.200;2023-04-25T08:25:25;6.75;;;3.17;;
59294;SDS011;45067;44.654;20.200;2023-04-25T08:27:51;5.05;;;3.00;;
59294;SDS011;45067;44.654;20.200;2023-04-25T08:30:17;5.15;;;2.88;;
59294;SDS011;45067;44.654;20.200;2023-04-25T08:32:44;5.90;;;2.80;;
59294;SDS011;45067;44.654;20.200;2023-04-25T08:35:10;7.95;;;3.50;;
59294;SDS011;45067;44.654;20.200;2023-04-25T08:37:36;5.90;;;3.60;;
59294;SDS011;45067;44.654;20.200;2023-04-25T08:40:03;5.57;;;3.50;;
59294;SDS011;45067;44.654;20.200;2023-04-25T08:42:32;5.13;;;3.40;;
59294;SDS011;45067;44.654;20.200;2023-04-25T08:45:02;7.97;;;4.05;;
59294;SDS011;45067;44.654;20.200;2023-04-25T08:47:29;6.30;;;3.80;;
59294;SDS011;45067;44.654;20.200;2023-04-25T08:49:55;7.47;;;3.80;;
59294;SDS011;45067;44.654;20.200;2023-04-25T08:52:24;7.65;;;3.70;;
59294;SDS011;45067;44.654;20.200;2023-04-25T08:54:53;5.78;;;3.15;;
59294;SDS011;45067;44.654;20.200;2023-04-25T08:57:20;5.15;;;3.65;;
59294;SDS011;45067;44.654;20.200;2023-04-25T08:59:47;4.55;;;3.38;;
59294;SDS011;45067;44.654;20.200;2023-04-25T09:02:13;7.13;;;3.20;;
59294;SDS011;45067;44.654;20.200;2023-04-25T09:04:44;4.45;;;2.80;;
59294;SDS011;45067;44.654;20.200;2023-04-25T09:07:10;5.25;;;2.95;;
59294;SDS011;45067;44.654;20.200;2023-04-25T09:09:36;3.60;;;2.17;;
59294;SDS011;45067;44.654;20.200;2023-04-25T09:12:02;6.72;;;2.97;;
59294;SDS011;45067;44.654;20.200;2023-04-25T09:14:28;4.65;;;3.00;;
59294;SDS011;45067;44.654;20.200;2023-04-25T09:21:53;5.57;;;2.60;;
59294;SDS011;45067;44.654;20.200;2023-04-25T09:27:12;4.25;;;2.08;;
59294;SDS011;45067;44.654;20.200;2023-04-25T09:29:39;3.25;;;1.98;;
59294;SDS011;45067;44.654;20.200;2023-04-25T09:32:14;2.97;;;2.08;;
59294;SDS011;45067;44.654;20.200;2023-04-25T09:34:41;3.78;;;2.30;;
59294;SDS011;45067;44.654;20.200;2023-04-25T09:37:08;3.30;;;1.98;;
59294;SDS011;45067;44.654;20.200;2023-04-25T09:39:36;4.32;;;2.53;;
59294;SDS011;45067;44.654;20.200;2023-04-25T09:42:03;8.00;;;2.25;;
59294;SDS011;45067;44.654;20.200;2023-04-25T09:44:29;5.20;;;2.38;;
59294;SDS011;45067;44.654;20.200;2023-04-25T09:46:57;5.85;;;2.70;;
59294;SDS011;45067;44.654;20.200;2023-04-25T09:49:24;7.90;;;2.88;;
59294;SDS011;45067;44.654;20.200;2023-04-25T09:54:22;4.97;;;2.37;;
59294;SDS011;45067;44.654;20.200;2023-04-25T09:56:48;4.97;;;2.30;;
59294;SDS011;45067;44.654;20.200;2023-04-25T09:59:18;3.50;;;2.30;;
59294;SDS011;45067;44.654;20.200;2023-04-25T10:01:45;2.63;;;2.00;;
59294;SDS011;45067;44.654;20.200;2023-04-25T10:04:12;5.55;;;1.90;;
59294;SDS011;45067;44.654;20.200;2023-04-25T10:06:38;3.10;;;2.22;;
59294;SDS011;45067;44.654;20.200;2023-04-25T10:09:07;5.10;;;2.80;;
59294;SDS011;45067;44.654;20.200;2023-04-25T10:11:34;4.35;;;2.72;;
59294;SDS011;45067;44.654;20.200;2023-04-25T10:14:00;3.88;;;2.22;;
59294;SDS011;45067;44.654;20.200;2023-04-25T10:16:27;4.60;;;2.40;;
59294;SDS011;45067;44.654;20.200;2023-04-25T10:18:54;5.38;;;2.38;;
59294;SDS011;45067;44.654;20.200;2023-04-25T10:21:20;3.97;;;1.90;;
59294;SDS011;45067;44.654;20.200;2023-04-25T10:23:47;3.47;;;2.25;;
59294;SDS011;45067;44.654;20.200;2023-04-25T10:26:15;2.72;;;1.80;;
59294;SDS011;45067;44.654;20.200;2023-04-25T10:29:00;7.13;;;2.45;;
59294;SDS011;45067;44.654;20.200;2023-04-25T10:31:27;5.80;;;2.65;;
59294;SDS011;45067;44.654;20.200;2023-04-25T10:33:53;5.93;;;2.42;;
59294;SDS011;45067;44.654;20.200;2023-04-25T10:36:21;4.53;;;2.17;;
59294;SDS011;45067;44.654;20.200;2023-04-25T10:38:48;3.47;;;2.00;;
59294;SDS011;45067;44.654;20.200;2023-04-25T10:41:18;4.22;;;2.90;;
59294;SDS011;45067;44.654;20.200;2023-04-25T10:43:45;4.97;;;2.58;;
59294;SDS011;45067;44.654;20.200;2023-04-25T10:48:47;4.25;;;2.70;;
59294;SDS011;45067;44.654;20.200;2023-04-25T10:51:24;5.35;;;2.30;;
59294;SDS011;45067;44.654;20.200;2023-04-25T10:56:42;5.25;;;2.67;;
59294;SDS011;45067;44.654;20.200;2023-04-25T11:01:42;11.00;;;2.67;;
59294;SDS011;45067;44.654;20.200;2023-04-25T11:09:29;4.90;;;2.20;;
59294;SDS011;45067;44.654;20.200;2023-04-25T11:11:55;5.85;;;2.70;;
59294;SDS011;45067;44.654;20.200;2023-04-25T11:14:22;4.68;;;2.67;;
59294;SDS011;45067;44.654;20.200;2023-04-25T11:16:57;3.95;;;2.70;;
59294;SDS011;45067;44.654;20.200;2023-04-25T11:19:26;4.65;;;2.60;;
59294;SDS011;45067;44.654;20.200;2023-04-25T11:21:55;5.00;;;2.35;;
59294;SDS011;45067;44.654;20.200;2023-04-25T11:24:28;4.75;;;2.47;;
59294;SDS011;45067;44.654;20.200;2023-04-25T11:26:54;2.95;;;2.10;;
59294;SDS011;45067;44.654;20.200;2023-04-25T11:29:27;5.90;;;2.20;;
59294;SDS011;45067;44.654;20.200;2023-04-25T11:31:54;5.28;;;2.42;;
59294;SDS011;45067;44.654;20.200;2023-04-25T11:34:22;2.83;;;2.08;;
59294;SDS011;45067;44.654;20.200;2023-04-25T11:36:49;5.82;;;2.25;;
59294;SDS011;45067;44.654;20.200;2023-04-25T11:39:17;3.28;;;1.92;;
59294;SDS011;45067;44.654;20.200;2023-04-25T11:41:43;3.45;;;2.20;;
59294;SDS011;45067;44.654;20.200;2023-04-25T11:44:09;5.40;;;2.13;;
59294;SDS011;45067;44.654;20.200;2023-04-25T11:46:36;3.25;;;1.98;;
59294;SDS011;45067;44.654;20.200;2023-04-25T11:49:02;3.83;;;2.42;;
59294;SDS011;45067;44.654;20.200;2023-04-25T11:51:29;5.88;;;2.42;;
59294;SDS011;45067;44.654;20.200;2023-04-25T11:53:56;4.88;;;2.67;;
59294;SDS011;45067;44.654;20.200;2023-04-25T11:56:22;5.78;;;2.10;;
59294;SDS011;45067;44.654;20.200;2023-04-25T11:58:58;3.90;;;2.10;;
59294;SDS011;45067;44.654;20.200;2023-04-25T12:01:29;3.47;;;2.55;;
59294;SDS011;45067;44.654;20.200;2023-04-25T12:03:56;4.25;;;2.38;;
59294;SDS011;45067;44.654;20.200;2023-04-25T12:06:28;3.35;;;2.40;;
59294;SDS011;45067;44.654;20.200;2023-04-25T12:09:04;4.45;;;1.98;;
59294;SDS011;45067;44.654;20.200;2023-04-25T12:11:30;4.63;;;2.30;;
59294;SDS011;45067;44.654;20.200;2023-04-25T12:14:01;2.45;;;1.80;;
59294;SDS011;45067;44.654;20.200;2023-04-25T12:16:28;4.15;;;1.95;;
59294;SDS011;45067;44.654;20.200;2023-04-25T12:18:55;3.85;;;2.40;;
59294;SDS011;45067;44.654;20.200;2023-04-25T12:21:22;3.67;;;2.58;;
59294;SDS011;45067;44.654;20.200;2023-04-25T12:23:48;3.63;;;2.13;;
59294;SDS011;45067;44.654;20.200;2023-04-25T12:26:15;2.47;;;2.05;;
59294;SDS011;45067;44.654;20.200;2023-04-25T12:28:44;4.80;;;2.20;;
59294;SDS011;45067;44.654;20.200;2023-04-25T12:31:12;3.08;;;2.00;;
59294;SDS011;45067;44.654;20.200;2023-04-25T12:33:40;5.22;;;1.98;;
59294;SDS011;45067;44.654;20.200;2023-04-25T12:36:07;3.42;;;1.98;;
59294;SDS011;45067;44.654;20.200;2023-04-25T12:38:36;4.78;;;2.03;;
59294;SDS011;45067;44.654;20.200;2023-04-25T12:41:02;3.80;;;2.05;;
59294;SDS011;45067;44.654;20.200;2023-04-25T12:43:28;4.00;;;1.95;;
59294;SDS011;45067;44.654;20.200;2023-04-25T12:45:55;8.55;;;2.15;;
59294;SDS011;45067;44.654;20.200;2023-04-25T12:48:21;6.18;;;2.80;;
59294;SDS011;45067;44.654;20.200;2023-04-25T12:50:48;5.80;;;3.05;;
59294;SDS011;45067;44.654;20.200;2023-04-25T12:53:17;5.45;;;3.30;;
59294;SDS011;45067;44.654;20.200;2023-04-25T12:55:43;4.22;;;2.65;;
59294;SDS011;45067;44.654;20.200;2023-04-25T12:58:13;5.20;;;2.72;;
59294;SDS011;45067;44.654;20.200;2023-04-25T13:00:39;3.70;;;2.30;;
59294;SDS011;45067;44.654;20.200;2023-04-25T13:03:05;5.03;;;2.65;;
59294;SDS011;45067;44.654;20.200;2023-04-25T13:05:32;7.18;;;3.38;;
59294;SDS011;45067;44.654;20.200;2023-04-25T13:07:58;5.45;;;3.42;;
59294;SDS011;45067;44.654;20.200;2023-04-25T13:10:24;3.63;;;2.35;;
59294;SDS011;45067;44.654;20.200;2023-04-25T13:12:50;3.20;;;2.45;;
59294;SDS011;45067;44.654;20.200;2023-04-25T13:15:17;3.60;;;1.90;;
59294;SDS011;45067;44.654;20.200;2023-04-25T13:20:47;3.00;;;2.10;;
59294;SDS011;45067;44.654;20.200;2023-04-25T13:23:24;7.32;;;2.10;;
59294;SDS011;45067;44.654;20.200;2023-04-25T13:25:51;4.18;;;2.33;;
59294;SDS011;45067;44.654;20.200;2023-04-25T13:28:28;5.32;;;2.40;;
59294;SDS011;45067;44.654;20.200;2023-04-25T13:31:01;5.10;;;2.60;;
59294;SDS011;45067;44.654;20.200;2023-04-25T13:33:27;3.20;;;2.13;;
59294;SDS011;45067;44.654;20.200;2023-04-25T13:35:55;2.85;;;2.03;;
59294;SDS011;45067;44.654;20.200;2023-04-25T13:38:31;4.15;;;1.90;;
59294;SDS011;45067;44.654;20.200;2023-04-25T13:40:57;5.05;;;1.90;;
59294;SDS011;45067;44.654;20.200;2023-04-25T13:43:23;7.15;;;1.83;;
59294;SDS011;45067;44.654;20.200;2023-04-25T13:45:49;4.40;;;2.00;;
59294;SDS011;45067;44.654;20.200;2023-04-25T13:48:16;6.35;;;2.38;;
59294;SDS011;45067;44.654;20.200;2023-04-25T13:50:42;5.60;;;1.70;;
59294;SDS011;45067;44.654;20.200;2023-04-25T13:53:08;4.68;;;1.70;;
59294;SDS011;45067;44.654;20.200;2023-04-25T13:55:35;5.28;;;1.80;;
59294;SDS011;45067;44.654;20.200;2023-04-25T13:58:02;4.95;;;2.28;;
59294;SDS011;45067;44.654;20.200;2023-04-25T14:00:33;7.47;;;2.10;;
59294;SDS011;45067;44.654;20.200;2023-04-25T14:03:00;4.60;;;2.20;;
59294;SDS011;45067;44.654;20.200;2023-04-25T14:05:29;3.13;;;2.10;;
59294;SDS011;45067;44.654;20.200;2023-04-25T14:07:56;3.95;;;2.15;;
59294;SDS011;45067;44.654;20.200;2023-04-25T14:10:24;5.50;;;2.28;;
59294;SDS011;45067;44.654;20.200;2023-04-25T14:12:51;4.78;;;2.13;;
59294;SDS011;45067;44.654;20.200;2023-04-25T14:15:18;4.20;;;1.92;;
59294;SDS011;45067;44.654;20.200;2023-04-25T14:17:45;4.63;;;2.22;;
59294;SDS011;45067;44.654;20.200;2023-04-25T14:20:13;3.20;;;2.20;;
59294;SDS011;45067;44.654;20.200;2023-04-25T14:22:39;4.32;;;2.22;;
59294;SDS011;45067;44.654;20.200;2023-04-25T14:25:12;2.60;;;2.05;;
59294;SDS011;45067;44.654;20.200;2023-04-25T14:27:38;3.50;;;2.00;;
59294;SDS011;45067;44.654;20.200;2023-04-25T14:30:05;4.57;;;2.35;;
59294;SDS011;45067;44.654;20.200;2023-04-25T14:32:32;3.22;;;1.80;;
59294;SDS011;45067;44.654;20.200;2023-04-25T14:34:58;4.32;;;2.28;;
59294;SDS011;45067;44.654;20.200;2023-04-25T14:37:33;4.10;;;2.20;;
59294;SDS011;45067;44.654;20.200;2023-04-25T14:40:00;2.55;;;1.83;;
59294;SDS011;45067;44.654;20.200;2023-04-25T14:42:29;4.45;;;2.30;;
59294;SDS011;45067;44.654;20.200;2023-04-25T14:44:56;4.00;;;2.20;;
59294;SDS011;45067;44.654;20.200;2023-04-25T14:47:22;2.42;;;1.70;;
59294;SDS011;45067;44.654;20.200;2023-04-25T14:49:52;3.80;;;1.80;;
59294;SDS011;45067;44.654;20.200;2023-04-25T14:52:24;6.05;;;3.55;;
59294;SDS011;45067;44.654;20.200;2023-04-25T14:54:52;11.43;;;4.05;;
59294;SDS011;45067;44.654;20.200;2023-04-25T14:57:18;9.95;;;6.28;;
59294;SDS011;45067;44.654;20.200;2023-04-25T14:59:45;14.82;;;9.07;;
59294;SDS011;45067;44.654;20.200;2023-04-25T15:02:12;5.15;;;2.63;;